EBBR/BRU METAR and TAF weather

Enter ICAO airport designator
Station Type Date Time Source
EBBR METAR 2019/04/23 21:20 UTC NOAA

EBBR 232120Z 17003KT CAVOK 15/09 Q0996 NOSIG


Station Type Date Time Source
EBBR Decoded METAR 2019/04/23 21:20 UTC NOAA

Bruxelles National, Belgium (EBBR) 50-54N 004-32E 58M
Apr 23, 2019 - 05:20 PM EDT / 2019.04.23 2120 UTC
Wind: from the S (170 degrees) at 3 MPH (3 KT):0
Visibility: greater than 7 mile(s):0
Temperature: 59 F (15 C)
Dew Point: 48 F (9 C)
Relative Humidity: 67%
Pressure (altimeter): 29.41 in. Hg (0996 hPa)
ob: EBBR 232120Z 17003KT CAVOK 15/09 Q0996 NOSIG
cycle: 21

Station Type Date Time Source
EBBR TAF 2019/04/23 18:27 UTC NOAA

TAF TAF EBBR 231720Z 2318/2424 09010KT CAVOK
BECMG 2319/2321 17008KT PROB40
TEMPO 2408/2417 18016G26KT PROB30
TEMPO 2417/2422 18018G30KT 3000 TSRA

Example: see airport list